Latest Weather Observations for Essendon Airport

IDV60901

Issued at 7:31 pm EST Monday 29 May 2017 (issued every 10 minutes, with the page automatically refreshed every 10 minutes)

About weather observations | Map of Melbourne area stations | Latest observations for Melbourne area | Other Formats
Station Details ID: 086038 Name: ESSENDON AIRPORT Lat: -37.73 Lon: 144.91 Height: 78.4 m
Data from the previous 72 hours. | See also: Recent months at Essendon Airport
Date/Time
EST
Temp
°C
App
Temp
°C
Dew
Point
°C
Rel
Hum
%
Delta-T
°C
Wind Press
QNH
hPa
Press
MSL
hPa
Rain since
9am
mm
Dir  Spd
km/h
Gust
km/h
Spd
kts
Gust
kts
29/07:30pm 11.5 6.9 5.4 66 2.8 N 19 24 10 13 1020.0 1020.0 0.0
29/07:00pm 11.7 7.0 5.3 65 2.9 N 19 26 10 14 1020.0 1020.0 0.0
29/06:30pm 11.9 7.0 5.3 64 3.1 N 20 30 11 16 1020.0 1020.0 0.0
29/06:00pm 11.8 7.9 5.2 64 3.0 NNW 15 20 8 11 1020.0 1020.0 0.0
29/05:30pm 12.1 7.8 5.3 63 3.2 NNW 17 24 9 13 1019.8 1019.8 0.0
29/05:00pm 12.3 7.6 5.0 61 3.4 NNW 19 26 10 14 1019.7 1019.7 0.0
29/04:30pm 12.5 7.8 5.0 60 3.5 NNW 19 26 10 14 1019.5 1019.5 0.0
29/04:00pm 13.0 7.9 4.2 55 4.0 NW 20 26 11 14 1019.4 1019.4 0.0
29/03:30pm 13.2 8.2 4.6 56 4.0 NW 20 28 11 15 1019.4 1019.4 0.0
29/03:00pm 13.0 8.0 4.7 57 3.8 NW 20 26 11 14 1019.2 1019.2 0.0
29/02:30pm 13.2 8.3 4.9 57 3.9 WNW 20 28 11 15 1019.2 1019.2 0.0
29/02:00pm 12.7 7.7 4.7 58 3.7 WNW 20 28 11 15 1019.2 1019.2 0.0
29/01:30pm 14.0 8.6 4.6 53 4.4 WNW 22 35 12 19 1019.1 1019.1 0.0
29/01:00pm 14.2 9.4 5.6 56 4.1 WNW 20 30 11 16 1019.2 1019.2 0.0
29/12:30pm 13.7 9.1 5.6 58 3.8 WNW 19 24 10 13 1019.3 1019.3 0.0
29/12:00pm 13.4 8.3 6.0 61 3.5 WNW 22 32 12 17 1019.6 1019.6 0.0
29/11:30am 13.0 8.4 5.4 60 3.6 WNW 19 26 10 14 1019.9 1019.9 0.0
29/11:00am 12.2 7.6 6.3 67 2.8 WNW 20 28 11 15 1020.2 1020.2 0.0
29/10:30am 11.9 7.8 6.0 67 2.8 WNW 17 22 9 12 1020.1 1020.1 0.0
29/10:00am 11.0 7.3 6.2 72 2.2 NW 15 20 8 11 1019.9 1019.9 0.0
29/09:30am 10.1 6.7 5.9 75 1.9 WNW 13 17 7 9 1019.7 1019.7 0.0
29/09:00am 8.5 5.0 5.3 80 1.4 NW 13 20 7 11 1019.3 1019.3 0.4
29/08:30am 7.1 3.4 4.4 83 1.2 NNW 13 20 7 11 1018.9 1018.9 0.4
29/08:00am 7.4 3.4 4.7 83 1.2 NW 15 19 8 10 1018.7 1018.7 0.4
29/07:30am 6.7 2.9 4.0 83 1.2 NW 13 17 7 9 1018.5 1018.5 0.4
29/07:00am 6.5 2.4 4.3 86 0.9 NW 15 19 8 10 1018.0 1018.0 0.4
29/06:30am 5.7 2.3 3.9 88 0.8 NNW 11 15 6 8 1017.5 1017.5 0.4
29/06:00am 6.5 2.3 4.0 84 1.1 NW 15 20 8 11 1017.0 1017.0 0.4
29/05:30am 6.7 2.6 4.2 84 1.1 WNW 15 20 8 11 1016.9 1016.9 0.4
29/05:00am 6.7 2.5 4.0 83 1.2 NW 15 19 8 10 1016.5 1016.5 0.4
29/04:30am 6.8 2.2 3.9 82 1.2 NW 17 20 9 11 1016.1 1016.1 0.4
29/04:00am 6.7 2.5 4.0 83 1.2 WNW 15 20 8 11 1016.0 1016.0 0.4
29/03:30am 6.9 2.4 4.2 83 1.2 NW 17 20 9 11 1015.8 1015.8 0.4
29/03:00am 6.9 2.8 4.4 84 1.1 NW 15 19 8 10 1015.5 1015.5 0.4
29/02:30am 6.7 2.2 4.4 85 1.0 WNW 17 24 9 13 1015.5 1015.5 0.4
29/02:00am 6.6 2.1 4.3 85 1.0 WNW 17 20 9 11 1015.3 1015.3 0.4
29/01:30am 6.5 2.0 4.2 85 1.0 WNW 17 22 9 12 1014.9 1015.0 0.4
29/01:00am 6.5 2.3 4.0 84 1.1 WNW 15 22 8 12 1014.7 1014.8 0.4
29/12:30am 6.5 2.3 3.7 82 1.2 NW 15 20 8 11 1014.5 1014.6 0.4
29/12:00am 6.3 1.1 3.6 83 1.1 WNW 20 28 11 15 1014.3 1014.4 0.4
 
Date/Time
EST
Temp
°C
App
Temp
°C
Dew
Point
°C
Rel
Hum
%
Delta-T
°C
Wind Press
QNH
hPa
Press
MSL
hPa
Rain since
9am
mm
Dir  Spd
km/h
Gust
km/h
Spd
kts
Gust
kts
28/11:30pm 6.5 1.5 3.8 83 1.2 WNW 19 24 10 13 1014.2 1014.3 0.4
28/11:00pm 6.7 1.6 3.9 82 1.2 WNW 20 28 11 15 1013.8 1013.9 0.4
28/10:30pm 6.9 1.8 4.0 82 1.2 WNW 20 30 11 16 1013.5 1013.6 0.4
28/10:00pm 7.2 2.1 4.3 82 1.3 WNW 20 28 11 15 1013.2 1013.3 0.4
28/09:30pm 7.1 2.0 4.2 82 1.3 W 20 32 11 17 1012.9 1013.0 0.4
28/09:00pm 7.2 1.7 4.2 81 1.3 WNW 22 28 12 15 1012.7 1012.8 0.4
28/08:30pm 7.5 2.1 4.3 80 1.4 WNW 22 32 12 17 1012.3 1012.4 0.4
28/08:00pm 8.0 3.2 4.6 79 1.5 WNW 19 26 10 14 1011.8 1011.9 0.4
28/07:30pm 7.9 3.4 4.3 78 1.6 WNW 17 20 9 11 1011.6 1011.6 0.4
28/07:00pm 8.2 3.4 4.4 77 1.7 WNW 19 28 10 15 1011.0 1011.0 0.4
28/06:30pm 8.4 4.1 5.2 80 1.4 WNW 17 24 9 13 1010.6 1010.6 0.4
28/06:00pm 8.3 3.9 4.9 79 1.5 WNW 17 24 9 13 1010.2 1010.2 0.4
28/05:30pm 8.5 3.3 5.6 82 1.3 WNW 22 30 12 16 1009.9 1009.9 0.4
28/05:00pm 8.2 2.2 5.3 82 1.3 W 26 41 14 22 1009.5 1009.5 0.4
28/04:30pm 9.0 0.8 5.0 76 1.8 WSW 37 52 20 28 1009.2 1009.2 0.4
28/04:20pm 9.8 2.6 4.8 71 2.3 W 32 50 17 27 1009.0 1009.0 0.4
28/04:00pm 11.4 5.5 5.7 68 2.7 W 26 39 14 21 1008.3 1008.3 0.4
28/03:30pm 11.2 5.8 6.3 72 2.3 W 24 37 13 20 1008.0 1008.0 0.4
28/03:00pm 10.5 5.8 7.6 82 1.4 WNW 22 35 12 19 1007.8 1007.8 0.4
28/02:30pm 9.9 3.9 7.0 82 1.4 W 28 37 15 20 1007.9 1007.9 0.2
28/02:00pm 10.2 2.3 7.8 85 1.2 W 39 59 21 32 1007.4 1007.4 0.0
28/01:50pm 12.2 5.8 5.4 63 3.2 W 28 52 15 28 1007.3 1007.3 0.0
28/01:30pm 13.8 8.7 6.2 60 3.6 WNW 22 32 12 17 1007.0 1007.0 0.0
28/01:00pm 12.7 6.6 4.7 58 3.7 WNW 26 35 14 19 1007.2 1007.2 0.0
28/12:30pm 13.7 7.4 5.8 59 3.8 WNW 28 37 15 20 1007.3 1007.3 0.0
28/12:00pm 12.7 8.0 6.1 64 3.1 WNW 20 35 11 19 1007.7 1007.7 0.0
28/11:30am 13.0 8.1 6.8 66 3.0 NW 22 33 12 18 1008.2 1008.2 0.0
28/11:00am 12.1 8.4 7.8 75 2.1 WNW 17 28 9 15 1008.4 1008.4 0.0
28/10:30am 11.2 5.5 6.7 74 2.1 NW 26 33 14 18 1008.4 1008.4 0.0
28/10:00am 12.1 7.8 7.0 71 2.5 NW 19 24 10 13 1008.2 1008.2 0.0
28/09:30am 12.9 9.5 7.6 70 2.6 NW 15 20 8 11 1008.1 1008.1 0.0
28/09:00am 11.5 8.1 7.6 77 1.9 NW 15 19 8 10 1008.0 1008.0 6.2
28/08:30am 10.6 7.7 8.0 84 1.3 NW 13 17 7 9 1007.9 1007.9 6.2
28/08:00am 10.3 7.3 7.5 83 1.3 NW 13 17 7 9 1007.7 1007.7 6.0
28/07:30am 10.4 7.5 8.3 87 1.0 NW 13 20 7 11 1007.4 1007.4 6.0
28/07:00am 10.5 7.3 8.3 86 1.1 WNW 15 20 8 11 1007.3 1007.3 6.0
28/06:30am 10.8 7.3 8.7 87 1.0 NW 17 22 9 12 1007.2 1007.2 6.0
28/06:00am 10.8 6.9 8.7 87 1.0 NW 19 28 10 15 1007.0 1007.0 6.0
28/05:30am 11.2 7.2 8.2 82 1.5 NW 19 28 10 15 1006.8 1006.8 5.8
28/05:00am 11.2 7.2 8.2 82 1.5 NNW 19 28 10 15 1006.8 1006.8 5.8
28/04:30am 11.2 7.4 8.9 86 1.1 NNW 19 26 10 14 1006.8 1006.8 5.8
28/04:00am 10.8 7.0 9.1 89 0.9 NNW 19 28 10 15 1006.8 1006.8 5.8
28/03:30am 10.5 7.0 8.9 90 0.8 N 17 22 9 12 1006.7 1006.7 5.8
28/03:00am 10.1 7.9 9.3 95 0.4 NNE 11 17 6 9 1006.8 1006.8 5.8
28/02:30am 9.8 7.3 9.7 99 0.1 N 13 19 7 10 1007.4 1007.4 5.8
28/02:00am 9.3 6.3 9.2 99 0.0 N 15 17 8 9 1008.2 1008.2 5.8
28/01:30am 9.1 5.7 9.0 99 0.0 NW 17 24 9 13 1008.7 1008.7 5.6
28/01:24am 9.1 5.2 8.8 98 0.1 WNW 19 28 10 15 1008.7 1008.7 5.4
28/01:07am 9.3 2.2 8.1 92 0.6 WNW 35 54 19 29 1009.4 1009.4 4.4
28/01:00am 10.0 1.3 7.9 87 1.0 W 43 57 23 31 1009.2 1009.2 2.8
28/12:58am 10.4 2.5 8.0 85 1.2 WNW 39 57 21 31 1009.1 1009.1 2.2
28/12:54am 11.2 4.7 8.8 85 1.2 NW 33 57 18 31 1009.0 1009.0 1.0
28/12:51am 12.9 8.1 11.6 92 0.7 NNW 28 46 15 25 1008.7 1008.7 1.0
28/12:30am 13.1 7.4 11.2 88 1.0 N 32 44 17 24 1007.1 1007.1 0.4
28/12:06am 14.3 8.2 10.5 78 2.0 N 33 52 18 28 1007.5 1007.5 0.0
28/12:00am 14.1 8.0 10.5 79 1.9 N 33 46 18 25 1007.4 1007.4 0.0
 
Date/Time
EST
Temp
°C
App
Temp
°C
Dew
Point
°C
Rel
Hum
%
Delta-T
°C
Wind Press
QNH
hPa
Press
MSL
hPa
Rain since
9am
mm
Dir  Spd
km/h
Gust
km/h
Spd
kts
Gust
kts
27/11:30pm 13.9 7.5 10.7 81 1.7 N 35 56 19 30 1007.8 1007.8 0.0
27/11:00pm 14.3 8.4 10.5 78 2.0 N 32 52 17 28 1008.2 1008.2 0.0
27/10:30pm 14.3 8.5 10.7 79 1.9 N 32 50 17 27 1008.9 1008.9 0.0
27/10:26pm 14.5 9.0 10.5 77 2.1 N 30 50 16 27 1008.9 1008.9 0.0
27/10:00pm 14.4 10.0 10.4 77 2.1 N 24 35 13 19 1009.4 1009.4 0.0
27/09:30pm 15.3 10.8 9.9 70 2.8 N 24 35 13 19 1009.5 1009.5 0.0
27/09:00pm 15.5 10.2 9.8 69 3.0 N 28 43 15 23 1009.5 1009.5 0.0
27/08:30pm 15.3 10.4 9.9 70 2.8 N 26 37 14 20 1009.8 1009.8 0.0
27/08:00pm 15.5 9.5 10.1 70 2.8 N 32 43 17 23 1010.1 1010.1 0.0
27/07:30pm 15.5 9.9 10.1 70 2.8 NNE 30 43 16 23 1010.2 1010.2 0.0
27/07:00pm 15.8 10.6 10.1 69 3.0 N 28 46 15 25 1010.7 1010.7 0.0
27/06:30pm 15.9 10.6 10.0 68 3.1 N 28 37 15 20 1010.6 1010.6 0.0
27/06:00pm 16.0 11.5 10.1 68 3.1 N 24 35 13 19 1010.8 1010.8 0.0
27/05:30pm 16.1 11.6 10.0 67 3.2 N 24 41 13 22 1010.8 1010.8 0.0
27/05:00pm 16.3 11.5 10.2 67 3.2 N 26 39 14 21 1010.9 1010.9 0.0
27/04:30pm 16.3 11.8 9.9 66 3.4 N 24 32 13 17 1011.3 1011.3 0.0
27/04:00pm 16.4 12.0 10.3 67 3.2 N 24 33 13 18 1011.5 1011.5 0.0
27/03:30pm 16.3 12.3 10.4 68 3.1 N 22 35 12 19 1011.7 1011.7 0.0
27/03:06pm 16.7 11.4 9.9 64 3.6 N 28 48 15 26 1011.8 1011.9 0.0
27/03:00pm 16.6 12.1 10.2 66 3.4 N 24 39 13 21 1011.9 1012.0 0.0
27/02:41pm 16.8 11.5 9.7 63 3.7 N 28 48 15 26 1012.0 1012.1 0.0
27/02:30pm 16.8 11.6 10.2 65 3.5 N 28 37 15 20 1012.2 1012.3 0.0
27/02:00pm 16.6 12.7 10.7 68 3.2 N 22 35 12 19 1012.7 1012.8 0.0
27/01:30pm 16.7 11.7 10.8 68 3.2 N 28 39 15 21 1013.1 1013.2 0.0
27/01:00pm 17.1 11.3 10.9 67 3.3 N 32 43 17 23 1013.4 1013.5 0.0
27/12:30pm 16.9 11.2 11.0 68 3.2 N 32 44 17 24 1014.0 1014.1 0.0
27/12:00pm 16.1 11.1 10.8 71 2.8 N 28 43 15 23 1015.0 1015.1 0.0
27/11:38am 16.4 11.1 11.3 72 2.8 N 30 48 16 26 1015.8 1015.8 0.0
27/11:30am 16.0 10.2 10.7 71 2.8 N 32 48 17 26 1015.8 1015.8 0.0
27/11:00am 15.3 8.9 10.7 74 2.4 N 35 46 19 25 1016.3 1016.3 0.0
27/10:30am 14.9 9.1 10.9 77 2.1 N 32 46 17 25 1016.7 1016.7 0.0
27/10:00am 14.8 9.5 11.2 79 1.9 N 30 43 16 23 1017.0 1017.0 0.0
27/09:30am 14.0 8.3 11.3 84 1.4 N 32 44 17 24 1017.1 1017.1 0.0
27/09:00am 13.1 8.2 11.3 89 1.0 N 28 37 15 20 1017.4 1017.4 0.0
27/08:30am 12.9 8.0 11.3 90 0.8 N 28 37 15 20 1017.6 1017.6 0.0
27/08:00am 12.7 8.2 11.4 92 0.7 N 26 39 14 21 1017.5 1017.5 0.0
27/07:30am 12.7 7.9 11.6 93 0.6 N 28 39 15 21 1017.4 1017.4 0.0
27/07:00am 12.6 8.9 11.5 93 0.6 N 22 32 12 17 1017.7 1017.7 0.0
27/06:30am 12.9 8.9 11.8 93 0.6 N 24 35 13 19 1017.5 1017.5 0.0
27/06:00am 12.8 8.8 11.9 94 0.5 N 24 32 13 17 1017.3 1017.3 0.0
27/05:30am 13.0 9.5 12.1 94 0.5 N 22 33 12 18 1017.5 1017.5 0.0
27/05:00am 12.9 9.7 12.0 94 0.5 N 20 28 11 15 1017.5 1017.5 0.0
27/04:30am 13.2 10.2 12.4 95 0.4 N 20 28 11 15 1017.6 1017.6 0.0
27/04:00am 13.1 9.7 12.6 97 0.3 N 22 30 12 16 1017.8 1017.8 0.0
27/03:30am 12.9 9.9 12.4 97 0.3 N 20 26 11 14 1018.0 1018.0 0.0
27/03:00am 13.2 9.9 12.7 97 0.3 N 22 32 12 17 1018.3 1018.3 0.0
27/02:30am 12.8 9.8 12.6 99 0.1 N 20 28 11 15 1018.5 1018.5 0.0
27/02:00am 12.9 9.9 12.6 98 0.2 N 20 28 11 15 1018.6 1018.6 0.0
27/01:30am 12.9 10.5 12.6 98 0.2 N 17 24 9 13 1018.9 1018.9 0.0
27/01:00am 13.0 9.7 12.7 98 0.2 N 22 33 12 18 1018.9 1018.9 0.0
27/12:30am 13.2 10.2 12.6 96 0.3 N 20 28 11 15 1019.2 1019.2 0.0
27/12:00am 13.1 10.1 12.6 97 0.3 N 20 28 11 15 1019.1 1019.1 0.0
 
Date/Time
EST
Temp
°C
App
Temp
°C
Dew
Point
°C
Rel
Hum
%
Delta-T
°C
Wind Press
QNH
hPa
Press
MSL
hPa
Rain since
9am
mm
Dir  Spd
km/h
Gust
km/h
Spd
kts
Gust
kts
26/11:30pm 13.0 10.0 12.5 97 0.3 N 20 30 11 16 1019.3 1019.3 0.0
26/11:00pm 12.8 9.8 12.6 99 0.1 N 20 30 11 16 1019.5 1019.5 0.0
26/10:30pm 12.3 10.1 12.1 99 0.1 N 15 19 8 10 1019.7 1019.7 0.0
26/10:00pm 12.1 9.8 11.8 98 0.2 N 15 20 8 11 1019.8 1019.8 0.0
26/09:30pm 12.3 9.6 11.8 97 0.3 N 17 24 9 13 1019.8 1019.8 0.0
26/09:00pm 12.3 9.6 11.8 97 0.3 N 17 24 9 13 1019.7 1019.7 0.0
26/08:30pm 11.5 9.6 10.4 93 0.6 N 11 15 6 8 1019.9 1019.9 0.0
26/08:00pm 12.0 9.8 10.9 93 0.6 NNW 13 17 7 9 1019.9 1019.9 0.0

Latest Capital City Observations: Canberra | Sydney | Melbourne | Brisbane | Adelaide | Perth | Hobart | Darwin

Other Formats:

Comma delimited format used in spreadsheet applications
http://www.bom.gov.au/fwo/IDV60901/IDV60901.95866.axf

JavaScript Object Notation format (JSON) in row-major order
http://www.bom.gov.au/fwo/IDV60901/IDV60901.95866.json